Livermore, Maine
Current Conditions -  °F | °C
As of 7:53 PM on Friday 28 Nov 2014 (Local Time) from KAUG Reporting Station
Clear Clear  
Wind Chill: 14°   Ceiling: Unl
Heat Index: 22°   Visibility: 10mi
Dew Point: 13°   Wind: 6mph
Humidity: 68%   Direction: 300°WNW
Pressure: 30.1"   Gusts: NA
Location:  44.38°N, 70.25°W
Report Text: KAUG 290053Z AUTO 30005KT 10SM CLR M06/M11 A3010 RMK AO2 SLP199 T10561106
Loading
Personal Weather Stations






























Interactive Weather Map New forecast layout! Learn more

10-Day Weather Forecast

Advertisements
Track Severe Weather on mobile